Terminal Aerodrome Forecast
Issued by NWS Louisville, KY

Home | Current Version | Previous Version | Text Only | Print | Product List | Glossary On
Versions: 1 2 3 4 5 6 7 8 9 10 11 12 13 14 15 16 17
000
FTUS43 KLMK 160500
TAFLEX
TAF
KLEX 160522Z 1606/1706 19010KT P6SM VCSH BKN017 WS018/21037KT
      TEMPO 1609/1612 SCT017 BKN035
     FM161200 23012G20KT P6SM VCSH BKN015
     FM161500 24012G21KT P6SM VCSH BKN015=

USA.gov is the U.S. government's official web portal to all federal, state and local government web resources and services.